createdAt,value
2023-02-03T00:01:25.608Z,100.40
2023-02-03T00:03:53.088Z,90.65
2023-02-03T00:06:20.650Z,94.10
2023-02-03T00:08:48.657Z,84.55
2023-02-03T00:11:16.138Z,89.68
2023-02-03T00:13:43.640Z,85.15
2023-02-03T00:16:11.083Z,99.20
2023-02-03T00:18:39.245Z,89.07
2023-02-03T00:21:07.278Z,106.32
2023-02-03T00:23:34.810Z,90.50
2023-02-03T00:26:13.491Z,86.63
2023-02-03T00:28:43.403Z,80.07
2023-02-03T00:31:21.017Z,82.35
2023-02-03T00:33:53.158Z,79.10
2023-02-03T00:36:20.603Z,81.78
2023-02-03T00:38:50.032Z,86.30
2023-02-03T00:41:18.855Z,88.00
2023-02-03T00:43:46.931Z,83.13
2023-02-03T00:46:15.060Z,82.57
2023-02-03T00:48:42.633Z,83.30
2023-02-03T00:51:10.155Z,95.95
2023-02-03T00:53:37.639Z,100.03
2023-02-03T00:56:12.440Z,95.95
2023-02-03T00:58:40.773Z,91.03
2023-02-03T01:01:08.847Z,99.40
2023-02-03T01:03:36.668Z,103.70
2023-02-03T01:06:18.066Z,102.40
2023-02-03T01:08:46.252Z,99.80
2023-02-03T01:11:17.379Z,98.45
2023-02-03T01:13:45.293Z,97.88
2023-02-03T01:16:15.095Z,98.53
2023-02-03T01:18:43.644Z,99.80
2023-02-03T01:21:14.792Z,93.78
2023-02-03T01:23:42.858Z,92.93
2023-02-03T01:26:16.111Z,99.63
2023-02-03T01:28:43.766Z,89.30
2023-02-03T01:31:18.234Z,93.72
2023-02-03T01:33:47.201Z,92.40
2023-02-03T01:36:16.281Z,98.75
2023-02-03T01:38:45.254Z,98.43
2023-02-03T01:41:16.184Z,104.00
2023-02-03T01:43:48.227Z,102.93
2023-02-03T01:46:18.956Z,106.55
2023-02-03T01:48:46.591Z,106.53
2023-02-03T01:51:14.315Z,110.10
2023-02-03T01:53:42.035Z,102.93
2023-02-03T01:56:10.835Z,99.10
2023-02-03T01:58:41.261Z,97.43
2023-02-03T02:01:08.964Z,101.25
2023-02-03T02:03:50.619Z,93.93
2023-02-03T02:06:18.086Z,93.72
2023-02-03T02:08:48.463Z,90.72
2023-02-03T02:11:16.240Z,85.97
2023-02-03T02:13:45.136Z,85.88
2023-02-03T02:16:26.029Z,74.68
2023-02-03T02:19:22.005Z,83.82
2023-02-03T02:22:19.220Z,87.40
2023-02-03T02:25:20.626Z,78.85
2023-02-03T02:28:00.253Z,78.65
2023-02-03T02:30:36.641Z,79.03
2023-02-03T02:33:28.655Z,62.63
2023-02-03T02:36:02.236Z,71.70
2023-02-03T02:38:52.093Z,72.25
2023-02-03T02:41:41.391Z,62.08
2023-02-03T02:44:09.095Z,66.32
2023-02-03T02:46:39.852Z,68.20
2023-02-03T02:49:22.414Z,64.90
2023-02-03T02:51:51.777Z,64.80
2023-02-03T02:54:24.076Z,64.00
2023-02-03T02:56:56.110Z,61.55
2023-02-03T02:59:24.741Z,60.05
2023-02-03T03:01:52.262Z,59.22
2023-02-03T03:04:25.673Z,56.40
2023-02-03T03:07:08.501Z,59.78
2023-02-03T03:12:15.016Z,56.92
2023-02-03T03:14:48.459Z,58.15
2023-02-03T03:17:22.801Z,57.17
2023-02-03T03:19:55.572Z,58.58
2023-02-03T03:22:32.966Z,59.17
2023-02-03T03:25:22.787Z,60.45
2023-02-03T03:27:54.923Z,59.30
2023-02-03T03:30:35.000Z,60.92
2023-02-03T03:33:04.635Z,58.40
2023-02-03T03:35:47.991Z,54.90
2023-02-03T03:38:33.754Z,51.33
2023-02-03T03:41:22.246Z,55.88
2023-02-03T03:43:52.416Z,55.72
2023-02-03T03:46:29.084Z,52.35
2023-02-03T03:49:01.291Z,56.10
2023-02-03T03:51:37.288Z,62.75
2023-02-03T03:54:09.382Z,62.80
2023-02-03T03:56:54.689Z,62.67
2023-02-03T03:59:24.312Z,60.40
2023-02-03T04:01:52.655Z,61.45
2023-02-03T04:04:21.350Z,65.22
2023-02-03T04:06:48.864Z,65.95
2023-02-03T04:09:17.592Z,69.45
2023-02-03T04:12:03.156Z,61.47
2023-02-03T04:14:35.333Z,60.60
2023-02-03T04:17:02.764Z,60.40
2023-02-03T04:19:30.302Z,60.03
2023-02-03T04:21:58.166Z,58.92
2023-02-03T04:24:25.661Z,57.10
2023-02-03T04:26:53.088Z,56.38
2023-02-03T04:29:20.665Z,56.70
2023-02-03T04:31:48.132Z,55.40
2023-02-03T04:34:15.793Z,54.28
2023-02-03T04:36:43.305Z,55.55
2023-02-03T04:39:10.895Z,55.72
2023-02-03T04:41:38.543Z,53.78
2023-02-03T04:44:06.354Z,52.00
2023-02-03T04:46:33.776Z,52.28
2023-02-03T04:49:01.211Z,52.80
2023-02-03T04:51:28.797Z,53.70
2023-02-03T04:53:56.177Z,56.03
2023-02-03T04:56:23.729Z,58.13
2023-02-03T04:58:51.333Z,57.78
2023-02-03T05:01:18.873Z,57.33
2023-02-03T05:03:46.404Z,59.35
2023-02-03T05:06:13.857Z,58.08
2023-02-03T05:08:41.322Z,53.42
2023-02-03T05:11:08.714Z,53.45
2023-02-03T05:13:36.110Z,53.85
2023-02-03T05:16:03.806Z,53.42
2023-02-03T05:18:31.436Z,52.70
2023-02-03T05:20:58.896Z,55.25
2023-02-03T05:23:26.472Z,53.53
2023-02-03T05:25:54.101Z,52.70
2023-02-03T05:28:21.511Z,54.75
2023-02-03T05:30:48.989Z,49.88
2023-02-03T05:33:17.041Z,53.35
2023-02-03T05:35:44.668Z,51.38
2023-02-03T05:38:12.132Z,53.65
2023-02-03T05:41:08.927Z,53.65
2023-02-03T05:43:36.766Z,54.75
2023-02-03T05:46:06.209Z,52.25
2023-02-03T05:48:34.880Z,53.45
2023-02-03T05:51:02.616Z,51.78
2023-02-03T05:53:30.301Z,53.50
2023-02-03T05:55:57.864Z,57.05
2023-02-03T05:58:25.410Z,55.67
2023-02-03T06:00:53.113Z,54.25
2023-02-03T06:03:20.574Z,60.30
2023-02-03T06:05:48.226Z,62.25
2023-02-03T06:08:15.761Z,65.38
2023-02-03T06:10:43.442Z,63.58
2023-02-03T06:13:16.669Z,60.92
2023-02-03T06:15:45.206Z,62.80
2023-02-03T06:18:12.694Z,69.93
2023-02-03T06:20:40.128Z,71.28
2023-02-03T06:23:07.610Z,73.43
2023-02-03T06:25:35.270Z,74.22
2023-02-03T06:28:02.988Z,74.28
2023-02-03T06:30:30.992Z,77.18
2023-02-03T06:32:58.707Z,79.75
2023-02-03T06:35:26.322Z,82.45
2023-02-03T06:37:53.920Z,82.70
2023-02-03T06:40:21.423Z,81.82
2023-02-03T06:42:49.120Z,79.35
2023-02-03T06:45:16.873Z,77.50
2023-02-03T06:47:45.721Z,80.85
2023-02-03T06:50:15.135Z,84.07
2023-02-03T06:52:42.824Z,91.03
2023-02-03T06:55:11.096Z,96.82
2023-02-03T06:57:46.996Z,99.15
2023-02-03T07:00:26.116Z,96.50
2023-02-03T07:02:58.426Z,95.53
2023-02-03T07:05:28.165Z,93.57
2023-02-03T07:07:55.942Z,95.20
2023-02-03T07:10:23.389Z,91.63
2023-02-03T07:12:51.905Z,89.05
2023-02-03T07:15:19.687Z,92.18
2023-02-03T07:17:54.669Z,95.00
2023-02-03T07:20:23.881Z,97.93
2023-02-03T07:22:58.248Z,92.25
2023-02-03T07:25:26.380Z,94.63
2023-02-03T07:27:54.173Z,95.18
2023-02-03T07:30:21.911Z,97.32
2023-02-03T07:32:50.926Z,97.45
2023-02-03T07:35:19.490Z,96.32
2023-02-03T07:37:47.077Z,102.95
2023-02-03T07:40:15.369Z,103.68
2023-02-03T07:42:44.405Z,99.93
2023-02-03T07:45:13.196Z,103.80
2023-02-03T07:47:42.355Z,99.50
2023-02-03T07:50:11.305Z,99.43
2023-02-03T07:52:39.470Z,98.78
2023-02-03T07:55:07.647Z,97.03
2023-02-03T07:57:35.349Z,96.30
2023-02-03T08:00:04.130Z,96.43
2023-02-03T08:02:40.126Z,94.63
2023-02-03T08:05:08.120Z,95.22
2023-02-03T08:07:35.680Z,95.80
2023-02-03T08:10:03.678Z,96.72
2023-02-03T08:12:31.317Z,100.10
2023-02-03T08:14:59.025Z,94.97
2023-02-03T08:17:26.791Z,93.75
2023-02-03T08:19:54.298Z,95.53
2023-02-03T08:22:21.926Z,91.97
2023-02-03T08:24:49.542Z,96.63
2023-02-03T08:27:21.448Z,98.88
2023-02-03T08:29:49.460Z,95.00
2023-02-03T08:32:19.605Z,98.80
2023-02-03T08:34:48.021Z,89.35
2023-02-03T08:37:18.272Z,95.45
2023-02-03T08:39:47.188Z,93.03
2023-02-03T08:42:14.827Z,92.40
2023-02-03T08:44:44.191Z,89.10
2023-02-03T08:47:12.448Z,88.80
2023-02-03T08:49:39.984Z,89.80
2023-02-03T08:52:09.154Z,91.72
2023-02-03T08:54:36.783Z,88.20
2023-02-03T08:57:04.467Z,87.38
2023-02-03T08:59:32.274Z,87.57
2023-02-03T09:01:59.983Z,88.50
2023-02-03T09:04:27.506Z,88.30
2023-02-03T09:06:55.393Z,89.72
2023-02-03T09:09:23.752Z,83.10
2023-02-03T09:11:51.238Z,84.63
2023-02-03T09:14:18.829Z,88.15
2023-02-03T09:16:46.269Z,91.40
2023-02-03T09:19:13.734Z,88.35
2023-02-03T09:21:44.225Z,87.03
2023-02-03T09:24:16.234Z,88.07
2023-02-03T09:26:44.116Z,87.75
2023-02-03T09:29:11.822Z,84.85
2023-02-03T09:31:39.665Z,84.97
2023-02-03T09:34:07.646Z,86.13
2023-02-03T09:36:35.299Z,89.65
2023-02-03T09:39:03.030Z,90.00
2023-02-03T09:41:45.992Z,86.93
2023-02-03T09:44:22.666Z,85.05
2023-02-03T09:47:03.998Z,85.30
2023-02-03T09:49:50.514Z,91.70
2023-02-03T09:52:25.359Z,90.35
2023-02-03T09:55:01.305Z,90.15
2023-02-03T09:57:32.143Z,88.90
2023-02-03T10:00:07.025Z,88.05
2023-02-03T10:02:48.794Z,84.25
2023-02-03T10:05:48.685Z,92.28
2023-02-03T10:08:19.125Z,86.55
2023-02-03T10:11:10.766Z,85.05
2023-02-03T10:14:05.040Z,88.15
2023-02-03T10:16:45.075Z,87.03
2023-02-03T10:19:20.023Z,89.03
2023-02-03T10:21:55.474Z,88.85
2023-02-03T10:24:26.882Z,86.30
2023-02-03T10:26:54.863Z,89.90
2023-02-03T10:29:38.196Z,88.07
2023-02-03T10:32:13.326Z,89.10
2023-02-03T10:34:45.104Z,88.40
2023-02-03T10:37:15.521Z,89.43
2023-02-03T10:39:51.177Z,89.65
2023-02-03T10:42:19.525Z,92.72
2023-02-03T10:44:57.389Z,90.72
2023-02-03T10:47:27.141Z,92.65
2023-02-03T10:49:57.302Z,92.32
2023-02-03T10:52:31.917Z,89.93
2023-02-03T10:54:59.892Z,94.68
2023-02-03T10:57:29.838Z,94.97
2023-02-03T11:00:07.731Z,94.97
2023-02-03T11:02:36.193Z,100.30
2023-02-03T11:05:21.129Z,111.10
2023-02-03T11:07:48.668Z,123.50
2023-02-03T11:10:35.923Z,118.80
2023-02-03T11:13:16.050Z,106.55
2023-02-03T11:15:47.724Z,100.57
2023-02-03T11:18:54.109Z,107.18
2023-02-03T11:21:33.735Z,98.35
2023-02-03T11:24:06.005Z,103.55
2023-02-03T11:26:40.049Z,112.80
2023-02-03T11:29:15.535Z,112.70
2023-02-03T11:31:49.142Z,106.85
2023-02-03T11:34:19.745Z,98.43
2023-02-03T11:36:47.265Z,94.53
2023-02-03T11:39:30.041Z,96.53
2023-02-03T11:41:57.570Z,94.57
2023-02-03T11:44:29.620Z,97.45
2023-02-03T11:49:32.844Z,94.63
2023-02-03T11:52:35.652Z,97.95
2023-02-03T11:55:21.281Z,101.38
2023-02-03T11:58:16.605Z,102.93
2023-02-03T12:01:31.563Z,96.90
2023-02-03T12:04:21.333Z,99.45
2023-02-03T12:07:18.385Z,96.05
2023-02-03T12:10:11.711Z,97.30
2023-02-03T12:13:12.289Z,93.47
2023-02-03T12:16:04.029Z,92.60
2023-02-03T12:18:31.471Z,93.32
2023-02-03T12:21:01.962Z,89.70
2023-02-03T12:24:14.882Z,90.43
2023-02-03T12:27:22.357Z,86.72
2023-02-03T12:30:02.336Z,85.93
2023-02-03T12:32:36.682Z,88.43
2023-02-03T12:35:46.482Z,87.75
2023-02-03T12:38:24.466Z,84.45
2023-02-03T12:41:04.376Z,89.82
2023-02-03T12:43:38.767Z,88.75
2023-02-03T12:46:20.939Z,92.80
2023-02-03T12:49:09.932Z,96.20
2023-02-03T12:51:49.785Z,97.78
2023-02-03T12:54:39.675Z,91.40
2023-02-03T12:57:18.572Z,92.18
2023-02-03T13:00:04.638Z,91.68
2023-02-03T13:02:45.075Z,91.25
2023-02-03T13:05:24.674Z,85.95
2023-02-03T13:08:21.583Z,86.63
2023-02-03T13:10:55.478Z,89.15
2023-02-03T13:13:35.197Z,84.75
2023-02-03T13:16:08.009Z,85.30
2023-02-03T13:18:42.738Z,84.25
2023-02-03T13:21:12.987Z,86.22
2023-02-03T13:23:51.555Z,85.20
2023-02-03T13:26:25.418Z,87.18
2023-02-03T13:28:58.932Z,83.97
2023-02-03T13:31:58.501Z,89.85
2023-02-03T13:35:01.021Z,85.20
2023-02-03T13:37:31.506Z,82.78
2023-02-03T13:40:07.919Z,84.28
2023-02-03T13:42:41.451Z,82.60
2023-02-03T13:45:18.045Z,82.43
2023-02-03T13:47:52.928Z,78.53
2023-02-03T13:50:30.416Z,82.82
2023-02-03T13:53:02.146Z,81.28
2023-02-03T13:55:39.366Z,79.50
2023-02-03T13:58:19.897Z,81.57
2023-02-03T14:00:47.302Z,79.63
2023-02-03T14:03:17.588Z,82.85
2023-02-03T14:05:51.083Z,78.50
2023-02-03T14:08:27.642Z,78.65
2023-02-03T14:11:32.761Z,76.13
2023-02-03T14:14:08.873Z,75.30
2023-02-03T14:16:43.456Z,76.20
2023-02-03T14:19:33.741Z,75.90
2023-02-03T14:22:04.979Z,78.85
2023-02-03T14:24:37.672Z,75.22
2023-02-03T14:27:17.335Z,78.80
2023-02-03T14:29:44.968Z,77.55
2023-02-03T14:32:13.675Z,78.45
2023-02-03T14:34:42.557Z,77.03
2023-02-03T14:37:26.507Z,76.57
2023-02-03T14:40:05.207Z,77.70
2023-02-03T14:42:40.179Z,75.10
2023-02-03T14:45:30.219Z,75.05
2023-02-03T14:48:00.592Z,75.45
2023-02-03T14:51:10.847Z,74.80
2023-02-03T14:53:58.424Z,76.20
2023-02-03T14:57:16.376Z,76.28
2023-02-03T14:59:45.910Z,75.40
2023-02-03T15:02:19.245Z,77.63
2023-02-03T15:04:50.377Z,79.57
2023-02-03T15:07:49.458Z,85.20
2023-02-03T15:10:41.915Z,83.53
2023-02-03T15:13:29.570Z,85.88
2023-02-03T15:16:01.309Z,87.43
2023-02-03T15:18:37.924Z,85.43
2023-02-03T15:21:05.594Z,84.90
2023-02-03T15:23:43.256Z,83.30
2023-02-03T15:26:24.310Z,84.20
2023-02-03T15:28:55.867Z,86.53
2023-02-03T15:31:32.369Z,86.53
2023-02-03T15:34:12.262Z,83.97
2023-02-03T15:36:50.630Z,86.00
2023-02-03T15:39:18.146Z,87.95
2023-02-03T15:41:48.427Z,86.80
2023-02-03T15:44:42.785Z,90.30
2023-02-03T15:47:34.688Z,88.18
2023-02-03T15:50:11.173Z,88.28
2023-02-03T15:52:42.924Z,88.55
2023-02-03T15:55:36.339Z,89.22
2023-02-03T15:58:04.697Z,88.68
2023-02-03T16:00:40.818Z,89.40
2023-02-03T16:03:19.826Z,89.35
2023-02-03T16:05:50.936Z,86.43
2023-02-03T16:08:42.752Z,87.60
2023-02-03T16:11:34.730Z,85.47
2023-02-03T16:14:26.916Z,80.78
2023-02-03T16:17:04.883Z,81.07
2023-02-03T16:19:38.169Z,80.60
2023-02-03T16:22:25.954Z,85.00
2023-02-03T16:24:53.424Z,78.80
2023-02-03T16:27:21.775Z,80.07
2023-02-03T16:30:07.666Z,79.90
2023-02-03T16:32:53.885Z,82.55
2023-02-03T16:35:40.332Z,84.82
2023-02-03T16:38:34.391Z,85.57
2023-02-03T16:41:23.026Z,79.88
2023-02-03T16:44:08.825Z,82.68
2023-02-03T16:46:55.978Z,88.38
2023-02-03T16:49:42.214Z,87.85
2023-02-03T16:52:09.686Z,91.10
2023-02-03T16:54:37.209Z,91.90
2023-02-03T16:57:04.685Z,93.45
2023-02-03T16:59:32.172Z,94.88
2023-02-03T17:01:59.625Z,91.15
2023-02-03T17:04:27.256Z,92.22
2023-02-03T17:06:54.879Z,95.55
2023-02-03T17:09:25.027Z,102.00
2023-02-03T17:11:52.575Z,100.63
2023-02-03T17:14:19.997Z,100.90
2023-02-03T17:16:47.533Z,103.25
2023-02-03T17:19:15.036Z,102.85
2023-02-03T17:21:42.742Z,96.40
2023-02-03T17:24:10.267Z,94.95
2023-02-03T17:26:37.776Z,89.63
2023-02-03T17:29:05.566Z,92.15
2023-02-03T17:31:33.349Z,87.85
2023-02-03T17:34:01.011Z,89.28
2023-02-03T17:36:28.656Z,86.57
2023-02-03T17:55:31.541Z,91.35
2023-02-03T17:57:59.433Z,95.65
2023-02-03T18:00:27.583Z,98.90
2023-02-03T18:02:56.433Z,96.38
2023-02-03T18:05:25.051Z,99.28
2023-02-03T18:07:52.448Z,97.15
2023-02-03T18:10:20.145Z,97.75
2023-02-03T18:12:47.860Z,93.43
2023-02-03T18:15:15.590Z,92.70
2023-02-03T18:17:43.361Z,93.47
2023-02-03T18:20:11.840Z,97.50
2023-02-03T18:22:39.233Z,94.32
2023-02-03T18:25:06.890Z,96.20
2023-02-03T18:27:34.396Z,96.57
2023-02-03T18:30:01.902Z,91.65
2023-02-03T18:32:29.333Z,95.40
2023-02-03T18:34:56.981Z,96.22
2023-02-03T18:37:24.427Z,96.18
2023-02-03T18:39:52.037Z,95.32
2023-02-03T18:42:19.501Z,98.28
2023-02-03T18:44:47.036Z,101.07
2023-02-03T18:47:14.719Z,97.65
2023-02-03T18:49:42.426Z,96.97
2023-02-03T18:52:09.890Z,98.35
2023-02-03T18:54:37.442Z,92.47
2023-02-03T18:57:05.921Z,95.35
2023-02-03T18:59:33.780Z,92.00
2023-02-03T19:02:01.474Z,96.60
2023-02-03T19:04:29.090Z,93.30
2023-02-03T19:06:56.770Z,93.93
2023-02-03T19:09:25.233Z,94.80
2023-02-03T19:11:52.832Z,93.00
2023-02-03T19:14:20.563Z,93.30
2023-02-03T19:16:50.460Z,87.88
2023-02-03T19:19:18.042Z,88.43
2023-02-03T19:21:46.217Z,88.97
2023-02-03T19:24:14.207Z,87.80
2023-02-03T19:26:42.116Z,90.75
2023-02-03T19:29:09.708Z,90.15
2023-02-03T19:31:37.428Z,93.25
2023-02-03T19:34:06.308Z,90.55
2023-02-03T19:36:34.045Z,92.82
2023-02-03T19:39:01.483Z,90.05
2023-02-03T19:41:31.016Z,91.63
2023-02-03T19:43:58.687Z,92.18
2023-02-03T19:46:27.398Z,90.72
2023-02-03T19:48:54.903Z,94.78
2023-02-03T19:51:22.476Z,89.47
2023-02-03T19:53:50.353Z,86.85
2023-02-03T19:56:18.574Z,87.07
2023-02-03T19:58:50.863Z,87.65
2023-02-03T20:01:19.289Z,88.65
2023-02-03T20:03:46.948Z,85.38
2023-02-03T20:06:14.722Z,86.43
2023-02-03T20:08:42.307Z,89.38
2023-02-03T20:11:09.850Z,86.88
2023-02-03T20:13:37.456Z,89.85
2023-02-03T20:16:05.185Z,89.85
2023-02-03T20:18:32.642Z,89.47
2023-02-03T20:21:00.198Z,88.80
2023-02-03T20:23:27.732Z,88.50
2023-02-03T20:25:55.312Z,89.80
2023-02-03T20:28:24.738Z,89.43
2023-02-03T20:30:53.994Z,89.13
2023-02-03T20:33:21.473Z,93.57
2023-02-03T20:35:49.840Z,91.18
2023-02-03T20:38:17.305Z,91.95
2023-02-03T20:40:45.933Z,86.57
2023-02-03T20:43:20.139Z,92.75
2023-02-03T20:45:49.690Z,92.13
2023-02-03T20:48:18.118Z,90.75
2023-02-03T20:50:47.730Z,93.43
2023-02-03T20:53:19.236Z,88.78
2023-02-03T20:55:47.652Z,86.77
2023-02-03T20:58:23.373Z,87.43
2023-02-03T21:00:51.711Z,86.47
2023-02-03T21:03:38.873Z,86.03
2023-02-03T21:06:17.467Z,86.10
2023-02-03T21:08:46.073Z,89.65
2023-02-03T21:11:16.710Z,93.75
2023-02-03T21:13:45.698Z,88.75
2023-02-03T21:16:17.874Z,91.72
2023-02-03T21:18:59.836Z,88.50
2023-02-03T21:21:46.880Z,90.93
2023-02-03T21:24:24.123Z,89.40
2023-02-03T21:26:51.991Z,88.90
2023-02-03T21:29:40.689Z,84.60
2023-02-03T21:32:14.263Z,87.45
2023-02-03T21:34:45.724Z,83.13
2023-02-03T21:37:39.047Z,83.03
2023-02-03T21:40:28.128Z,82.75
2023-02-03T21:42:55.899Z,83.75
2023-02-03T21:45:34.326Z,87.75
2023-02-03T21:48:22.694Z,87.97
2023-02-03T21:50:50.373Z,86.45
2023-02-03T21:53:23.712Z,89.82
2023-02-03T21:55:51.264Z,84.72
2023-02-03T21:58:30.868Z,89.10
2023-02-03T22:01:00.510Z,87.40
2023-02-03T22:03:36.422Z,95.32
2023-02-03T22:06:09.967Z,91.60
2023-02-03T22:08:42.834Z,96.25
2023-02-03T22:11:10.848Z,93.18
2023-02-03T22:13:38.462Z,94.38
2023-02-03T22:16:06.580Z,94.90
2023-02-03T22:18:35.337Z,99.70
2023-02-03T22:21:03.396Z,98.53
2023-02-03T22:23:31.028Z,96.75
2023-02-03T22:25:58.694Z,93.60
2023-02-03T22:28:26.614Z,97.22
2023-02-03T22:30:54.209Z,97.80
2023-02-03T22:33:21.763Z,98.50
2023-02-03T22:35:49.297Z,98.13
2023-02-03T22:38:16.806Z,98.70
2023-02-03T22:40:44.623Z,97.55
2023-02-03T22:43:12.319Z,101.57
2023-02-03T22:45:39.752Z,99.50
2023-02-03T22:48:07.387Z,103.18
2023-02-03T22:50:36.348Z,101.35
2023-02-03T22:53:05.036Z,101.63
2023-02-03T22:55:32.538Z,103.50
2023-02-03T22:58:00.027Z,104.57
2023-02-03T23:00:27.786Z,106.57
2023-02-03T23:02:55.663Z,104.60
2023-02-03T23:05:23.384Z,105.72
2023-02-03T23:07:51.142Z,103.03
2023-02-03T23:10:24.593Z,97.43
2023-02-03T23:12:52.804Z,96.13
2023-02-03T23:15:20.321Z,97.63
2023-02-03T23:17:47.809Z,90.88
2023-02-03T23:20:16.982Z,90.68
2023-02-03T23:22:45.132Z,90.15
2023-02-03T23:25:12.866Z,88.78
2023-02-03T23:27:40.394Z,83.93
2023-02-03T23:30:09.381Z,80.38
2023-02-03T23:32:37.148Z,79.28
2023-02-03T23:35:22.870Z,73.38
2023-02-03T23:37:50.391Z,79.97
2023-02-03T23:40:18.193Z,77.82
2023-02-03T23:42:45.624Z,74.03
2023-02-03T23:45:13.223Z,81.45
2023-02-03T23:47:42.529Z,80.13
2023-02-03T23:50:13.661Z,78.68
2023-02-03T23:52:41.175Z,80.70
2023-02-03T23:55:11.977Z,77.00
2023-02-03T23:57:42.576Z,77.43
